Time;durP1;ratioP1;P1;durP2;ratioP2;P2;SDS_P1;SDS_P2;PMS_P1;PMS_P2;Temp;Humidity;BMP_temperature;BMP_pressure;BME280_temperature;BME280_humidity;BME280_pressure;Samples;Min_cycle;Max_cycle;Signal;HPM_P1;HPM_P2
2023/06/21 00:01:41;;;;;;;4.27;1.10;;;14.70;99.90;;;;;;5072208;28;20202;-70
2023/06/21 00:04:09;;;;;;;2.40;1.07;;;14.80;99.90;;;;;;5072789;28;20207;-69
2023/06/21 00:06:39;;;;;;;2.07;1.07;;;14.90;99.90;;;;;;5072850;28;20219;-69
2023/06/21 00:09:07;;;;;;;2.60;1.10;;;15.00;99.90;;;;;;5073359;28;20182;-69
2023/06/21 00:11:34;;;;;;;3.00;1.83;;;15.20;99.90;;;;;;5073082;28;20176;-70
2023/06/21 00:14:02;;;;;;;8.47;2.13;;;15.40;99.90;;;;;;5072608;28;20833;-70
2023/06/21 00:16:31;;;;;;;5.93;2.20;;;15.60;99.90;;;;;;5072752;28;20194;-69
2023/06/21 00:18:59;;;;;;;5.90;3.23;;;15.90;99.90;;;;;;5072972;28;20507;-70
2023/06/21 00:21:26;;;;;;;5.07;2.37;;;16.30;99.90;;;;;;5071888;28;20686;-70
2023/06/21 00:23:54;;;;;;;3.63;1.63;;;15.80;99.90;;;;;;5072122;28;20255;-70
2023/06/21 00:26:22;;;;;;;12.10;1.70;;;16.40;99.90;;;;;;5071746;28;20221;-70
2023/06/21 00:28:50;;;;;;;3.97;1.30;;;16.60;99.90;;;;;;5072682;28;20248;-68
2023/06/21 00:31:17;;;;;;;2.53;1.30;;;17.30;99.00;;;;;;5072283;28;20187;-72
2023/06/21 00:33:45;;;;;;;3.53;1.40;;;17.30;98.50;;;;;;5073418;28;20665;-70
2023/06/21 00:36:13;;;;;;;2.70;1.30;;;18.00;93.70;;;;;;5058411;28;20180;-71
2023/06/21 00:38:41;;;;;;;5.03;1.43;;;17.90;94.70;;;;;;5070820;28;20210;-69
2023/06/21 00:41:09;;;;;;;3.07;1.27;;;18.10;92.60;;;;;;5070680;28;20203;-69
2023/06/21 00:43:37;;;;;;;3.20;1.30;;;17.90;93.50;;;;;;5070209;28;20195;-69
2023/06/21 00:46:05;;;;;;;3.77;1.30;;;18.30;94.00;;;;;;5070238;28;20256;-71
2023/06/21 00:48:33;;;;;;;4.93;1.60;;;18.10;92.50;;;;;;5070416;28;20183;-69
2023/06/21 00:51:01;;;;;;;2.77;1.50;;;18.20;90.80;;;;;;5070041;28;20196;-70
2023/06/21 00:56:50;;;;;;;6.10;1.40;;;18.40;86.40;;;;;;5070432;28;20180;-69
2023/06/21 00:59:18;;;;;;;4.00;1.10;;;18.20;88.10;;;;;;5070488;28;20202;-70
2023/06/21 01:01:46;;;;;;;4.37;1.37;;;18.40;88.60;;;;;;5070659;28;20267;-70
2023/06/21 01:04:14;;;;;;;5.40;1.43;;;18.30;90.20;;;;;;5070844;28;20709;-72
2023/06/21 01:06:59;;;;;;;6.23;1.30;;;18.60;86.40;;;;;;5068850;28;20899;-70
2023/06/21 01:09:57;;;;;;;8.20;1.43;;;18.50;92.00;;;;;;5070686;28;20219;-72
2023/06/21 01:12:28;;;;;;;3.33;1.20;;;18.90;87.60;;;;;;5070285;28;20267;-69
2023/06/21 01:15:25;;;;;;;9.57;1.40;;;19.40;82.40;;;;;;5070596;28;20235;-70
2023/06/21 01:17:54;;;;;;;9.23;1.50;;;18.80;85.00;;;;;;5069363;28;20210;-70
2023/06/21 01:20:30;;;;;;;4.33;1.20;;;19.00;83.50;;;;;;5070266;28;20179;-71
2023/06/21 01:23:25;;;;;;;3.33;1.50;;;19.00;84.70;;;;;;5070814;28;20178;-71
2023/06/21 01:25:53;;;;;;;4.07;1.40;;;19.30;84.70;;;;;;5070830;28;20204;-71
2023/06/21 01:28:27;;;;;;;4.80;1.77;;;19.40;79.10;;;;;;5070267;28;20255;-70
2023/06/21 01:30:58;;;;;;;4.70;1.73;;;19.70;78.00;;;;;;5070487;28;20266;-70
2023/06/21 01:33:28;;;;;;;6.23;1.50;;;19.60;77.20;;;;;;5069574;28;20279;-71
2023/06/21 01:35:57;;;;;;;9.30;1.63;;;19.60;77.30;;;;;;5072401;28;20184;-71
2023/06/21 01:38:26;;;;;;;4.77;1.50;;;20.10;75.10;;;;;;5074176;28;20176;-72
2023/06/21 01:40:53;;;;;;;5.23;1.30;;;20.30;69.50;;;;;;5074060;28;20179;-70
2023/06/21 01:43:22;;;;;;;5.53;1.63;;;20.10;72.30;;;;;;5073569;28;20203;-71
2023/06/21 01:45:52;;;;;;;4.87;1.57;;;19.70;67.20;;;;;;5074536;28;20211;-70
2023/06/21 01:48:21;;;;;;;6.73;1.30;;;19.90;69.80;;;;;;5073452;28;20225;-71
2023/06/21 01:50:52;;;;;;;3.70;1.10;;;19.90;66.40;;;;;;5073345;28;20278;-70
2023/06/21 01:53:21;;;;;;;3.67;1.23;;;19.90;68.90;;;;;;5073888;28;20183;-69
2023/06/21 01:55:52;;;;;;;5.00;1.50;;;20.20;70.40;;;;;;5073693;28;20180;-70
2023/06/21 01:58:20;;;;;;;2.43;1.27;;;20.80;65.00;;;;;;5073435;28;20176;-70
2023/06/21 02:00:47;;;;;;;2.10;0.90;;;21.60;61.00;;;;;;5073718;28;20188;-70
2023/06/21 02:03:19;;;;;;;7.30;1.17;;;21.50;58.20;;;;;;5073823;28;20259;-70
2023/06/21 02:05:48;;;;;;;3.63;1.10;;;21.40;55.60;;;;;;5073320;28;20567;-69
2023/06/21 02:08:16;;;;;;;6.90;1.07;;;21.50;57.20;;;;;;5073288;28;20184;-69
2023/06/21 02:10:46;;;;;;;5.37;1.20;;;21.50;54.50;;;;;;5073408;28;20190;-70
2023/06/21 02:13:16;;;;;;;4.43;0.90;;;21.60;53.20;;;;;;5073206;28;20199;-69
2023/06/21 02:15:44;;;;;;;5.00;1.20;;;21.30;52.00;;;;;;5073332;28;20242;-69
2023/06/21 02:18:12;;;;;;;3.73;0.90;;;21.00;48.30;;;;;;5073419;28;20315;-70
2023/06/21 02:20:40;;;;;;;11.97;1.83;;;21.00;51.30;;;;;;5072403;28;20187;-70
2023/06/21 02:23:09;;;;;;;2.20;0.90;;;21.10;50.60;;;;;;5070833;28;20228;-70
2023/06/21 02:25:37;;;;;;;1.83;0.70;;;21.20;50.80;;;;;;5053320;28;20216;-70
2023/06/21 02:28:05;;;;;;;1.40;0.80;;;20.80;45.10;;;;;;5061395;28;20184;-69
2023/06/21 02:30:33;;;;;;;0.70;0.67;;;20.70;47.50;;;;;;5072910;28;20187;-70
2023/06/21 02:33:01;;;;;;;4.13;1.07;;;21.20;45.90;;;;;;5073220;28;20270;-70
2023/06/21 02:35:29;;;;;;;2.07;0.60;;;21.40;43.50;;;;;;5072707;28;20179;-69
2023/06/21 02:37:58;;;;;;;0.87;0.50;;;21.70;38.20;;;;;;5072743;28;20271;-69
2023/06/21 02:40:26;;;;;;;1.80;0.60;;;22.00;33.90;;;;;;5072744;28;20223;-70
2023/06/21 02:42:53;;;;;;;1.67;0.60;;;22.40;34.00;;;;;;5072786;28;20187;-69
2023/06/21 02:45:21;;;;;;;2.60;0.77;;;22.50;33.90;;;;;;5072611;28;20708;-68
2023/06/21 02:47:49;;;;;;;1.77;1.00;;;22.20;35.90;;;;;;5072900;28;20265;-69
2023/06/21 02:50:18;;;;;;;1.10;0.80;;;21.90;36.00;;;;;;5072084;28;20240;-68
2023/06/21 02:52:46;;;;;;;1.17;0.90;;;21.60;35.00;;;;;;5072966;28;20238;-69
2023/06/21 02:55:14;;;;;;;3.40;0.70;;;21.80;36.30;;;;;;5072594;28;20184;-69
2023/06/21 02:57:41;;;;;;;4.17;0.80;;;21.50;35.60;;;;;;5072265;28;20641;-69
2023/06/21 03:03:31;;;;;;;1.57;0.80;;;21.70;31.50;;;;;;5071524;28;20611;-70
2023/06/21 03:05:59;;;;;;;2.70;0.70;;;21.60;32.40;;;;;;5072427;28;20693;-69
2023/06/21 03:08:27;;;;;;;2.33;0.80;;;21.90;30.00;;;;;;5072491;28;20180;-70
2023/06/21 03:10:54;;;;;;;1.07;0.70;;;21.60;27.10;;;;;;5073638;28;20194;-69
2023/06/21 03:13:22;;;;;;;5.50;0.90;;;21.40;27.30;;;;;;5053986;28;20229;-70
2023/06/21 03:15:50;;;;;;;2.70;0.70;;;21.30;30.20;;;;;;5054061;28;20220;-69
2023/06/21 03:18:18;;;;;;;1.30;0.60;;;21.60;29.80;;;;;;5072596;28;20585;-69
2023/06/21 03:20:49;;;;;;;3.63;0.73;;;21.80;28.90;;;;;;5072121;28;20555;-69
2023/06/21 03:23:17;;;;;;;1.27;0.70;;;21.90;28.90;;;;;;5074539;28;20179;-69
2023/06/21 03:25:45;;;;;;;1.47;0.50;;;21.90;29.40;;;;;;5075339;28;20547;-70
2023/06/21 03:28:13;;;;;;;3.37;0.60;;;21.70;29.30;;;;;;5074113;28;20172;-68
2023/06/21 03:30:40;;;;;;;1.27;0.57;;;21.80;29.70;;;;;;5073781;28;20180;-70
2023/06/21 03:33:08;;;;;;;2.87;0.60;;;22.00;28.80;;;;;;5073596;28;20295;-70
2023/06/21 03:35:36;;;;;;;1.57;0.57;;;22.20;27.30;;;;;;5073713;28;20245;-69
2023/06/21 03:38:04;;;;;;;0.73;0.60;;;22.30;26.10;;;;;;5073747;28;20270;-69
2023/06/21 03:40:32;;;;;;;3.43;0.60;;;22.50;25.80;;;;;;5073623;28;20238;-68
2023/06/21 03:43:00;;;;;;;4.10;0.70;;;22.20;26.00;;;;;;5073276;28;20183;-71
2023/06/21 03:45:27;;;;;;;3.07;0.60;;;21.80;25.60;;;;;;5072381;28;20546;-69
2023/06/21 03:47:55;;;;;;;1.90;0.77;;;21.50;25.10;;;;;;5073373;28;20167;-69
2023/06/21 03:50:23;;;;;;;1.67;0.67;;;21.40;25.50;;;;;;5073340;28;20254;-69
2023/06/21 03:52:51;;;;;;;4.20;0.83;;;21.10;26.20;;;;;;5073235;28;20179;-71
2023/06/21 03:55:19;;;;;;;5.20;0.80;;;20.10;25.40;;;;;;5073463;28;20173;-70
2023/06/21 03:57:46;;;;;;;0.87;0.60;;;19.70;26.60;;;;;;5069830;28;20586;-70
2023/06/21 04:00:14;;;;;;;4.13;0.80;;;20.10;26.90;;;;;;5073430;28;20226;-69
2023/06/21 04:02:42;;;;;;;1.43;0.50;;;20.40;29.00;;;;;;5071940;28;20178;-70
2023/06/21 04:05:10;;;;;;;2.30;0.90;;;21.00;27.80;;;;;;5073399;28;20183;-68
2023/06/21 04:07:42;;;;;;;1.53;0.73;;;21.40;25.10;;;;;;5073386;28;20248;-70
2023/06/21 04:10:10;;;;;;;1.70;0.77;;;21.60;25.00;;;;;;5072910;28;20187;-69
2023/06/21 04:12:37;;;;;;;1.13;0.60;;;21.30;25.10;;;;;;5072807;28;20230;-70
2023/06/21 04:15:06;;;;;;;1.77;0.53;;;21.40;24.40;;;;;;5072947;28;20585;-70
2023/06/21 04:17:33;;;;;;;1.43;0.60;;;21.50;23.00;;;;;;5071575;28;20544;-68
2023/06/21 04:20:14;;;;;;;1.00;0.50;;;21.50;23.30;;;;;;5072761;28;20211;-70
2023/06/21 04:22:44;;;;;;;2.57;0.50;;;21.90;21.70;;;;;;5072799;28;20183;-69
2023/06/21 04:25:12;;;;;;;3.27;0.90;;;21.80;21.90;;;;;;5057384;28;20180;-70
2023/06/21 04:27:40;;;;;;;0.50;0.50;;;21.80;21.10;;;;;;5072757;28;20184;-70
2023/06/21 04:30:09;;;;;;;1.10;0.50;;;21.60;20.70;;;;;;5073094;28;20180;-71
2023/06/21 04:32:45;;;;;;;1.50;0.63;;;21.50;20.30;;;;;;5072829;28;20195;-69
2023/06/21 04:35:14;;;;;;;2.10;0.60;;;21.40;19.80;;;;;;5072963;28;20195;-71
2023/06/21 04:37:46;;;;;;;1.97;0.80;;;20.90;20.10;;;;;;5072959;28;20642;-70
2023/06/21 04:40:18;;;;;;;1.57;0.70;;;20.80;20.70;;;;;;5071645;28;20172;-69
2023/06/21 04:43:01;;;;;;;1.73;0.70;;;20.70;22.00;;;;;;5071293;28;20275;-70
2023/06/21 04:45:31;;;;;;;5.70;0.57;;;20.50;20.20;;;;;;5071470;28;20212;-71
2023/06/21 04:47:59;;;;;;;2.97;0.70;;;20.70;18.90;;;;;;5060099;28;20613;-70
2023/06/21 04:50:27;;;;;;;2.33;0.60;;;20.70;21.30;;;;;;5067418;28;20216;-71
2023/06/21 04:53:01;;;;;;;3.03;0.60;;;20.50;20.20;;;;;;5070895;28;20208;-71
2023/06/21 04:55:29;;;;;;;1.90;0.50;;;20.40;20.80;;;;;;5071010;28;20174;-71
2023/06/21 04:57:58;;;;;;;2.33;0.60;;;20.30;21.50;;;;;;5070825;28;20245;-71
2023/06/21 05:00:26;;;;;;;0.90;0.50;;;20.50;22.00;;;;;;5071100;28;20649;-71
2023/06/21 05:02:54;;;;;;;1.97;0.40;;;20.70;20.70;;;;;;5070618;28;20537;-71
2023/06/21 05:05:22;;;;;;;0.83;0.57;;;20.80;20.30;;;;;;5070944;28;20207;-70
2023/06/21 05:07:49;;;;;;;2.73;0.70;;;20.80;19.00;;;;;;5070812;28;20211;-70
2023/06/21 05:10:17;;;;;;;2.30;0.70;;;20.60;18.20;;;;;;5074209;28;20180;-71
2023/06/21 05:12:45;;;;;;;2.87;0.60;;;20.90;17.90;;;;;;5075321;28;20274;-71
2023/06/21 05:15:14;;;;;;;2.13;0.50;;;20.20;17.10;;;;;;5076121;28;20238;-70
2023/06/21 05:17:42;;;;;;;0.57;0.40;;;20.00;17.70;;;;;;5074734;28;20237;-71
2023/06/21 05:20:10;;;;;;;3.10;0.73;;;19.80;19.00;;;;;;5075430;28;20628;-69
2023/06/21 05:22:38;;;;;;;2.30;0.60;;;19.90;19.90;;;;;;5074749;28;20250;-67
2023/06/21 05:25:06;;;;;;;1.77;0.53;;;19.80;19.60;;;;;;5074652;28;20555;-67
2023/06/21 05:27:34;;;;;;;0.93;0.60;;;19.70;20.00;;;;;;5076276;28;20752;-69
2023/06/21 05:30:02;;;;;;;2.43;0.83;;;19.20;18.50;;;;;;5076141;28;20309;-68
2023/06/21 05:32:30;;;;;;;2.30;0.60;;;18.80;19.30;;;;;;5076223;28;20187;-70
2023/06/21 05:34:57;;;;;;;1.30;0.60;;;18.50;20.60;;;;;;5075953;28;20175;-68
2023/06/21 05:37:25;;;;;;;1.67;0.60;;;18.10;21.60;;;;;;5075976;28;20168;-68
2023/06/21 05:39:53;;;;;;;0.90;0.60;;;17.60;22.20;;;;;;5075892;28;20551;-68
2023/06/21 05:42:21;;;;;;;1.33;0.70;;;17.30;22.90;;;;;;5075912;28;20183;-68
2023/06/21 05:44:48;;;;;;;2.00;0.63;;;17.10;25.50;;;;;;5075911;28;20186;-68
2023/06/21 05:47:16;;;;;;;1.07;0.60;;;16.90;26.60;;;;;;5075826;28;20204;-68
2023/06/21 05:49:44;;;;;;;2.50;0.63;;;16.70;27.60;;;;;;5074374;28;20249;-68
2023/06/21 05:52:12;;;;;;;1.93;0.80;;;16.60;28.50;;;;;;5075855;28;20172;-69
2023/06/21 05:54:41;;;;;;;4.03;0.80;;;16.40;27.90;;;;;;5075772;28;20174;-68
2023/06/21 05:57:09;;;;;;;4.03;0.90;;;16.20;30.60;;;;;;5075760;28;20208;-69
2023/06/21 05:59:37;;;;;;;1.93;0.80;;;16.00;30.80;;;;;;5075663;28;20179;-69
2023/06/21 06:02:06;;;;;;;3.13;0.90;;;15.90;30.40;;;;;;5075493;28;20183;-68
2023/06/21 06:04:34;;;;;;;2.10;0.90;;;15.70;32.00;;;;;;5075566;28;20176;-69
2023/06/21 06:07:02;;;;;;;2.40;1.10;;;15.50;34.30;;;;;;5075375;28;20241;-68
2023/06/21 06:09:30;;;;;;;3.53;0.93;;;15.30;35.00;;;;;;5075488;28;20539;-68
2023/06/21 06:11:58;;;;;;;2.80;1.00;;;15.20;35.80;;;;;;5075387;28;20183;-69
2023/06/21 06:14:27;;;;;;;2.07;0.80;;;15.10;35.40;;;;;;5075145;28;20239;-68
2023/06/21 06:16:55;;;;;;;3.70;1.00;;;15.00;36.90;;;;;;5075314;28;20182;-69
2023/06/21 06:19:22;;;;;;;9.17;1.23;;;15.00;37.60;;;;;;5075416;28;20264;-69
2023/06/21 06:21:50;;;;;;;4.53;0.87;;;14.90;40.00;;;;;;5073150;28;20270;-68
2023/06/21 06:24:18;;;;;;;2.00;0.87;;;14.80;43.40;;;;;;5075184;28;20667;-68
2023/06/21 06:26:45;;;;;;;3.37;1.03;;;14.60;45.10;;;;;;5075125;28;20294;-68
2023/06/21 06:29:13;;;;;;;1.20;1.00;;;14.40;47.20;;;;;;5075128;28;20182;-68
2023/06/21 06:31:42;;;;;;;2.80;1.30;;;14.30;50.00;;;;;;5075112;28;20649;-70
2023/06/21 06:34:29;;;;;;;1.07;0.83;;;14.20;54.00;;;;;;5074711;28;20184;-68
2023/06/21 06:36:57;;;;;;;3.33;0.87;;;14.10;58.40;;;;;;5074924;28;20179;-70
2023/06/21 06:39:25;;;;;;;1.73;0.83;;;13.90;62.70;;;;;;5074777;28;20168;-69
2023/06/21 06:41:52;;;;;;;1.60;0.80;;;13.70;71.70;;;;;;5074635;28;20175;-68
2023/06/21 06:44:20;;;;;;;3.20;0.80;;;13.50;77.30;;;;;;5074776;28;20258;-69
2023/06/21 06:46:48;;;;;;;2.33;0.97;;;13.30;91.60;;;;;;5074626;28;20294;-70
2023/06/21 06:49:16;;;;;;;1.50;0.97;;;13.10;94.30;;;;;;5074729;28;20175;-69
2023/06/21 06:51:45;;;;;;;2.57;0.80;;;13.00;97.50;;;;;;5074583;28;20186;-68
2023/06/21 06:54:13;;;;;;;2.67;1.10;;;12.90;99.90;;;;;;5074508;28;20237;-68
2023/06/21 06:56:41;;;;;;;2.90;0.97;;;12.80;99.90;;;;;;5074465;28;20179;-70
2023/06/21 06:59:08;;;;;;;5.43;1.10;;;12.60;99.90;;;;;;5074590;28;20175;-68
2023/06/21 07:01:36;;;;;;;3.13;0.90;;;12.50;99.90;;;;;;5074557;28;20241;-68
2023/06/21 07:04:04;;;;;;;3.57;1.30;;;12.30;99.90;;;;;;5074159;28;20167;-68
2023/06/21 07:06:32;;;;;;;3.53;1.20;;;12.20;99.90;;;;;;5074112;28;20367;-68
2023/06/21 07:09:00;;;;;;;6.77;1.33;;;12.00;99.90;;;;;;5074230;28;20660;-68
2023/06/21 07:11:27;;;;;;;5.57;1.87;;;11.90;99.90;;;;;;5074160;28;20197;-68
2023/06/21 07:13:55;;;;;;;2.17;1.30;;;11.90;99.90;;;;;;5073913;28;20319;-68
2023/06/21 07:16:24;;;;;;;2.57;1.00;;;11.80;99.90;;;;;;5074346;28;20541;-68
2023/06/21 07:18:51;;;;;;;3.10;1.10;;;11.70;99.90;;;;;;5072588;28;20184;-67
2023/06/21 07:21:19;;;;;;;5.70;1.50;;;11.60;99.90;;;;;;5073916;28;20179;-69
2023/06/21 07:23:48;;;;;;;3.30;1.23;;;11.50;99.90;;;;;;5073755;28;20183;-69
2023/06/21 07:26:16;;;;;;;6.67;1.60;;;11.40;99.90;;;;;;5074006;28;20226;-67
2023/06/21 07:28:44;;;;;;;3.20;1.20;;;11.30;99.90;;;;;;5073942;28;20181;-69
2023/06/21 07:31:11;;;;;;;6.73;2.23;;;11.20;99.90;;;;;;5073690;28;20194;-71
2023/06/21 07:33:39;;;;;;;6.17;2.10;;;11.10;99.90;;;;;;5073030;28;20536;-68
2023/06/21 07:36:07;;;;;;;6.57;2.50;;;11.00;99.90;;;;;;5073816;28;20187;-68
2023/06/21 07:38:35;;;;;;;7.67;1.80;;;11.00;99.90;;;;;;5073724;28;20174;-69
2023/06/21 07:41:02;;;;;;;4.57;1.70;;;10.90;99.90;;;;;;5074108;28;20176;-69
2023/06/21 07:43:30;;;;;;;7.60;1.67;;;10.90;99.90;;;;;;5073528;28;20689;-68
2023/06/21 07:45:58;;;;;;;3.40;1.90;;;10.80;99.90;;;;;;5073396;28;20209;-69
2023/06/21 07:48:27;;;;;;;4.70;1.73;;;10.70;99.90;;;;;;5073559;28;20231;-69
2023/06/21 07:50:54;;;;;;;3.67;1.50;;;10.70;99.90;;;;;;5076692;28;20228;-67
2023/06/21 07:53:22;;;;;;;5.03;2.00;;;10.60;99.90;;;;;;5073363;28;20545;-67
2023/06/21 07:55:50;;;;;;;4.63;1.90;;;10.60;99.90;;;;;;5074013;28;20179;-65
2023/06/21 07:58:18;;;;;;;8.10;2.17;;;10.50;99.90;;;;;;5075446;28;20179;-69
2023/06/21 08:00:45;;;;;;;7.63;2.40;;;10.40;99.90;;;;;;5073636;28;20171;-68
2023/06/21 08:03:13;;;;;;;8.10;2.73;;;10.40;99.90;;;;;;5074661;28;20201;-69
2023/06/21 08:05:41;;;;;;;5.43;3.10;;;10.50;99.90;;;;;;5073322;28;20209;-69
2023/06/21 08:08:10;;;;;;;10.87;3.40;;;10.40;99.90;;;;;;5073811;28;20174;-69
2023/06/21 08:10:38;;;;;;;8.03;3.50;;;10.40;99.90;;;;;;5073427;28;20203;-69
2023/06/21 08:13:05;;;;;;;6.60;3.67;;;10.30;99.90;;;;;;5073394;28;20700;-69
2023/06/21 08:15:33;;;;;;;8.43;3.57;;;10.20;99.90;;;;;;5072977;28;20216;-69
2023/06/21 08:18:01;;;;;;;5.50;3.50;;;10.10;99.90;;;;;;5071949;28;20536;-68
2023/06/21 08:20:28;;;;;;;11.27;3.47;;;10.00;99.90;;;;;;5073103;28;20170;-68
2023/06/21 08:22:56;;;;;;;12.07;3.33;;;10.00;99.90;;;;;;5073107;28;20553;-68
2023/06/21 08:25:24;;;;;;;5.53;3.20;;;9.90;99.90;;;;;;5073181;28;20182;-68
2023/06/21 08:27:52;;;;;;;5.97;3.13;;;9.80;99.90;;;;;;5073049;28;20190;-68
2023/06/21 08:30:19;;;;;;;7.60;3.20;;;9.70;99.90;;;;;;5073372;28;20270;-68
2023/06/21 08:32:47;;;;;;;8.23;3.37;;;9.60;99.90;;;;;;5073093;28;20205;-68
2023/06/21 08:35:15;;;;;;;9.73;3.53;;;9.60;99.90;;;;;;5072918;28;20168;-67
2023/06/21 08:37:58;;;;;;;9.73;3.67;;;9.60;99.90;;;;;;5073134;28;20180;-68
2023/06/21 08:40:33;;;;;;;7.60;3.20;;;9.50;99.90;;;;;;5073070;28;20569;-67
2023/06/21 08:43:01;;;;;;;10.60;4.07;;;9.50;99.90;;;;;;5073037;28;20182;-67
2023/06/21 08:45:29;;;;;;;15.13;5.47;;;9.50;99.90;;;;;;5077114;28;20199;-68
2023/06/21 08:48:01;;;;;;;10.30;4.60;;;9.60;99.90;;;;;;5077296;28;20299;-68
2023/06/21 08:50:30;;;;;;;12.73;5.27;;;9.60;99.90;;;;;;5077102;28;20176;-67
2023/06/21 08:53:02;;;;;;;11.27;5.87;;;9.60;99.90;;;;;;5077057;28;20192;-67
2023/06/21 08:55:32;;;;;;;13.53;6.47;;;9.50;99.90;;;;;;5077091;28;20190;-67
2023/06/21 08:58:11;;;;;;;19.20;6.97;;;9.40;99.90;;;;;;5076864;28;20205;-70
2023/06/21 09:01:00;;;;;;;18.17;6.50;;;9.40;99.90;;;;;;5077269;28;20644;-67
2023/06/21 09:03:39;;;;;;;14.03;6.33;;;9.40;99.90;;;;;;5076622;28;20183;-68
2023/06/21 09:06:12;;;;;;;11.33;6.83;;;9.30;99.90;;;;;;5076874;28;20213;-68
2023/06/21 09:08:42;;;;;;;19.63;6.83;;;9.30;99.90;;;;;;5076854;28;20265;-68
2023/06/21 09:11:12;;;;;;;18.30;6.87;;;9.20;99.90;;;;;;5076801;28;20179;-67
2023/06/21 09:13:41;;;;;;;12.67;6.80;;;9.10;99.90;;;;;;5076748;28;20259;-67
2023/06/21 09:16:10;;;;;;;15.77;7.03;;;9.00;99.90;;;;;;5077168;28;20670;-67
2023/06/21 09:18:39;;;;;;;13.57;7.00;;;9.00;99.90;;;;;;5076486;28;20182;-69
2023/06/21 09:21:10;;;;;;;17.40;8.33;;;8.90;99.90;;;;;;5076467;28;20698;-68
2023/06/21 09:23:39;;;;;;;16.93;8.37;;;8.80;99.90;;;;;;5076297;28;20582;-70
2023/06/21 09:26:08;;;;;;;13.90;7.47;;;8.70;99.90;;;;;;5076681;28;20215;-67
2023/06/21 09:28:37;;;;;;;13.40;8.30;;;8.70;99.90;;;;;;5076133;28;20194;-67
2023/06/21 09:31:04;;;;;;;16.67;9.77;;;8.70;99.90;;;;;;5076167;28;20283;-68
2023/06/21 09:33:32;;;;;;;19.57;8.50;;;8.70;99.90;;;;;;5076227;28;20513;-68
2023/06/21 09:36:00;;;;;;;24.10;9.73;;;8.70;99.90;;;;;;5076276;28;20180;-67
2023/06/21 09:38:32;;;;;;;18.87;9.73;;;8.60;99.90;;;;;;5076197;28;20178;-67
2023/06/21 09:41:01;;;;;;;15.93;9.40;;;8.50;99.90;;;;;;5076081;28;20180;-67
2023/06/21 09:43:29;;;;;;;20.73;8.77;;;8.40;99.90;;;;;;5075854;28;20179;-67
2023/06/21 09:46:03;;;;;;;28.07;8.10;;;8.30;99.90;;;;;;5075829;28;20216;-67
2023/06/21 09:48:35;;;;;;;13.63;7.00;;;8.30;99.90;;;;;;5076098;28;20173;-67
2023/06/21 09:51:05;;;;;;;14.77;7.50;;;8.30;99.90;;;;;;5075714;28;20608;-69
2023/06/21 09:53:33;;;;;;;10.63;6.83;;;8.30;99.90;;;;;;5075716;28;20564;-68
2023/06/21 09:56:01;;;;;;;12.03;7.07;;;8.40;99.90;;;;;;5074526;28;20690;-68
2023/06/21 09:58:32;;;;;;;17.83;7.10;;;8.40;99.90;;;;;;5075640;28;20238;-67
2023/06/21 10:01:05;;;;;;;14.10;7.30;;;8.30;99.90;;;;;;5075569;28;20268;-67
2023/06/21 10:03:34;;;;;;;13.63;7.23;;;8.30;99.90;;;;;;5075302;28;20174;-67
2023/06/21 10:06:03;;;;;;;22.60;7.40;;;8.30;99.90;;;;;;5075412;28;20204;-67
2023/06/21 10:08:38;;;;;;;14.77;7.63;;;8.30;99.90;;;;;;5075525;28;20170;-68
2023/06/21 10:11:06;;;;;;;16.07;7.87;;;8.30;99.90;;;;;;5075428;28;20654;-68
2023/06/21 10:13:37;;;;;;;13.30;6.90;;;8.30;99.90;;;;;;5075461;28;20177;-67
2023/06/21 10:16:05;;;;;;;14.87;7.73;;;8.30;99.90;;;;;;5075211;28;20637;-68
2023/06/21 10:18:34;;;;;;;14.23;6.67;;;8.30;99.90;;;;;;5075252;28;20199;-67
2023/06/21 10:21:06;;;;;;;15.17;7.37;;;8.40;99.90;;;;;;5075269;28;20181;-66
2023/06/21 10:23:37;;;;;;;13.13;7.23;;;8.30;99.90;;;;;;5075086;28;20180;-67
2023/06/21 10:26:12;;;;;;;21.30;7.77;;;8.30;99.90;;;;;;5075312;28;20212;-67
2023/06/21 10:28:45;;;;;;;16.50;7.03;;;8.20;99.90;;;;;;5073760;28;20179;-67
2023/06/21 10:31:13;;;;;;;16.53;7.40;;;8.10;99.90;;;;;;5075043;28;20184;-67
2023/06/21 10:33:44;;;;;;;14.63;7.90;;;8.20;99.90;;;;;;5074865;28;20524;-67
2023/06/21 10:36:16;;;;;;;17.10;7.30;;;8.20;99.90;;;;;;5075102;28;20193;-67
2023/06/21 10:38:54;;;;;;;19.10;9.30;;;8.20;99.90;;;;;;5075085;28;20513;-68
2023/06/21 10:41:22;;;;;;;15.40;8.80;;;8.20;99.90;;;;;;5074945;28;20259;-66
2023/06/21 10:43:50;;;;;;;17.53;8.73;;;8.20;99.90;;;;;;5074590;28;20177;-67
2023/06/21 10:46:18;;;;;;;18.90;9.27;;;8.10;99.90;;;;;;5074932;28;20665;-66
2023/06/21 10:48:47;;;;;;;18.17;10.03;;;8.10;99.90;;;;;;5074987;28;20276;-66
2023/06/21 10:51:17;;;;;;;18.23;10.23;;;8.00;99.90;;;;;;5074916;28;20172;-67
2023/06/21 10:53:45;;;;;;;17.23;9.87;;;8.00;99.90;;;;;;5074640;28;20175;-66
2023/06/21 10:56:16;;;;;;;23.43;10.03;;;8.00;99.90;;;;;;5074685;28;20533;-66
2023/06/21 10:58:44;;;;;;;16.17;9.73;;;7.90;99.90;;;;;;5074722;28;20487;-67
2023/06/21 11:01:13;;;;;;;15.37;8.03;;;7.80;99.90;;;;;;5074525;28;20216;-67
2023/06/21 11:03:42;;;;;;;16.67;7.80;;;7.80;99.90;;;;;;5074229;28;20172;-67
2023/06/21 11:06:29;;;;;;;13.10;8.20;;;7.80;99.90;;;;;;5074096;28;20352;-66
2023/06/21 11:09:05;;;;;;;14.30;8.23;;;7.80;99.90;;;;;;5075022;28;20176;-67
2023/06/21 11:11:40;;;;;;;13.10;8.10;;;7.80;99.90;;;;;;5074347;28;20189;-67
2023/06/21 11:14:08;;;;;;;11.50;8.17;;;7.90;99.90;;;;;;5073997;28;20308;-67
2023/06/21 11:16:39;;;;;;;13.10;7.50;;;7.90;99.90;;;;;;5074766;28;20197;-66
2023/06/21 11:19:13;;;;;;;14.27;8.97;;;7.90;99.90;;;;;;5074148;28;20179;-66
2023/06/21 11:21:51;;;;;;;16.47;8.53;;;7.90;99.90;;;;;;5074178;28;20179;-66
2023/06/21 11:24:20;;;;;;;15.73;8.10;;;8.00;99.90;;;;;;5072563;28;20656;-69
2023/06/21 11:27:06;;;;;;;15.67;8.63;;;7.90;99.90;;;;;;5073848;28;20228;-66
2023/06/21 11:29:34;;;;;;;16.50;7.93;;;8.00;99.90;;;;;;5073889;28;20265;-68
2023/06/21 11:32:22;;;;;;;10.83;7.87;;;8.00;99.90;;;;;;5074159;28;20176;-67
2023/06/21 11:34:56;;;;;;;15.43;8.63;;;8.00;99.90;;;;;;5073666;28;20177;-67
2023/06/21 11:37:42;;;;;;;14.23;8.33;;;8.10;99.90;;;;;;5072561;28;20569;-69
2023/06/21 11:40:12;;;;;;;11.77;7.97;;;8.10;99.90;;;;;;5073852;28;20226;-67
2023/06/21 11:42:47;;;;;;;16.13;8.60;;;8.10;99.90;;;;;;5073372;28;20652;-69
2023/06/21 11:45:28;;;;;;;14.93;7.70;;;8.10;99.90;;;;;;5073663;28;20210;-67
2023/06/21 11:48:15;;;;;;;12.20;8.13;;;8.10;99.90;;;;;;5073574;28;20638;-67
2023/06/21 11:50:48;;;;;;;11.40;7.20;;;8.20;99.90;;;;;;5073460;28;20176;-67
2023/06/21 11:53:23;;;;;;;20.67;8.13;;;8.20;99.90;;;;;;5073591;28;20701;-67
2023/06/21 11:55:58;;;;;;;12.10;7.00;;;8.10;99.90;;;;;;5073595;28;20172;-68
2023/06/21 11:58:27;;;;;;;12.87;7.73;;;8.20;99.90;;;;;;5072087;28;20234;-67
2023/06/21 12:00:56;;;;;;;14.03;7.60;;;8.20;99.90;;;;;;5073416;28;20592;-68
2023/06/21 12:03:26;;;;;;;14.07;8.10;;;8.30;99.90;;;;;;5073253;28;20277;-68
2023/06/21 12:05:57;;;;;;;18.30;7.83;;;8.30;99.90;;;;;;5073369;28;20208;-67
2023/06/21 12:08:28;;;;;;;12.17;7.80;;;8.30;99.90;;;;;;5073975;28;20185;-67
2023/06/21 12:11:00;;;;;;;15.47;8.00;;;8.20;99.90;;;;;;5073428;28;20618;-67
2023/06/21 12:13:29;;;;;;;14.03;8.17;;;8.20;99.90;;;;;;5073784;28;20272;-68
2023/06/21 12:16:00;;;;;;;11.87;7.53;;;8.20;99.90;;;;;;5073153;28;20247;-67
2023/06/21 12:18:31;;;;;;;12.73;8.37;;;8.20;99.90;;;;;;5072537;28;20230;-67
2023/06/21 12:21:03;;;;;;;19.07;8.23;;;8.30;99.90;;;;;;5073134;28;20172;-68
2023/06/21 12:23:32;;;;;;;13.30;8.60;;;8.30;99.90;;;;;;5071672;28;20207;-67
2023/06/21 12:26:02;;;;;;;14.77;8.17;;;8.30;99.90;;;;;;5073388;28;20204;-67
2023/06/21 12:28:31;;;;;;;18.53;8.37;;;8.30;99.90;;;;;;5073061;28;20176;-67
2023/06/21 12:31:04;;;;;;;14.20;9.17;;;8.40;99.90;;;;;;5073113;28;20314;-68
2023/06/21 12:33:40;;;;;;;16.10;8.87;;;8.40;99.90;;;;;;5073687;28;20173;-67
2023/06/21 12:36:29;;;;;;;16.87;8.80;;;8.30;99.90;;;;;;5072992;28;20175;-67
2023/06/21 12:39:02;;;;;;;13.13;9.10;;;8.40;99.90;;;;;;5072928;28;20560;-68
2023/06/21 12:41:32;;;;;;;17.50;10.27;;;8.40;99.90;;;;;;5072870;28;20172;-68
2023/06/21 12:44:01;;;;;;;18.67;9.50;;;8.30;99.90;;;;;;5072677;28;20176;-68
2023/06/21 12:46:40;;;;;;;16.33;9.70;;;8.30;99.90;;;;;;5073153;28;20685;-68
2023/06/21 12:49:09;;;;;;;18.43;10.87;;;8.30;99.90;;;;;;5073058;28;20170;-67
2023/06/21 12:51:38;;;;;;;16.83;10.10;;;8.30;99.90;;;;;;5072065;28;20551;-67
2023/06/21 12:54:14;;;;;;;16.80;9.97;;;8.30;99.90;;;;;;5071484;28;20263;-67
2023/06/21 12:56:58;;;;;;;16.60;10.03;;;8.30;99.90;;;;;;5072872;28;20682;-68
2023/06/21 12:59:26;;;;;;;18.97;10.50;;;8.30;99.90;;;;;;5071529;28;20536;-67
2023/06/21 13:01:55;;;;;;;17.57;9.97;;;8.30;99.90;;;;;;5072714;28;20659;-67
2023/06/21 13:04:23;;;;;;;13.70;9.30;;;8.40;99.90;;;;;;5072800;28;20173;-66
2023/06/21 13:06:51;;;;;;;16.13;10.17;;;8.40;99.90;;;;;;5072811;28;20237;-66